sensor_id;sensor_type;location;lat;lon;timestamp;P1;durP1;ratioP1;P2;durP2;ratioP2
4565;SDS011;2295;51.050;14.608;2023-06-19T00:00:35;12.18;;;9.90;;
4565;SDS011;2295;51.050;14.608;2023-06-19T00:03:03;11.73;;;9.75;;
4565;SDS011;2295;51.050;14.608;2023-06-19T00:05:32;16.50;;;9.45;;
4565;SDS011;2295;51.050;14.608;2023-06-19T00:08:01;17.73;;;9.85;;
4565;SDS011;2295;51.050;14.608;2023-06-19T00:10:32;11.93;;;9.25;;
4565;SDS011;2295;51.050;14.608;2023-06-19T00:13:01;11.75;;;9.95;;
4565;SDS011;2295;51.050;14.608;2023-06-19T00:15:29;13.90;;;9.75;;
4565;SDS011;2295;51.050;14.608;2023-06-19T00:17:58;10.27;;;9.13;;
4565;SDS011;2295;51.050;14.608;2023-06-19T00:20:27;12.40;;;9.95;;
4565;SDS011;2295;51.050;14.608;2023-06-19T00:22:55;14.30;;;8.77;;
4565;SDS011;2295;51.050;14.608;2023-06-19T00:25:25;14.63;;;10.52;;
4565;SDS011;2295;51.050;14.608;2023-06-19T00:27:53;12.70;;;10.00;;
4565;SDS011;2295;51.050;14.608;2023-06-19T00:30:21;11.27;;;9.25;;
4565;SDS011;2295;51.050;14.608;2023-06-19T00:32:50;12.90;;;9.85;;
4565;SDS011;2295;51.050;14.608;2023-06-19T00:35:19;11.65;;;9.32;;
4565;SDS011;2295;51.050;14.608;2023-06-19T00:37:48;13.13;;;10.30;;
4565;SDS011;2295;51.050;14.608;2023-06-19T00:40:19;12.98;;;9.90;;
4565;SDS011;2295;51.050;14.608;2023-06-19T00:42:54;14.70;;;10.10;;
4565;SDS011;2295;51.050;14.608;2023-06-19T00:45:23;10.65;;;9.45;;
4565;SDS011;2295;51.050;14.608;2023-06-19T00:47:51;18.17;;;10.43;;
4565;SDS011;2295;51.050;14.608;2023-06-19T00:50:20;11.63;;;9.60;;
4565;SDS011;2295;51.050;14.608;2023-06-19T00:52:49;13.68;;;10.00;;
4565;SDS011;2295;51.050;14.608;2023-06-19T00:55:18;11.18;;;9.77;;
4565;SDS011;2295;51.050;14.608;2023-06-19T00:57:48;12.82;;;10.15;;
4565;SDS011;2295;51.050;14.608;2023-06-19T01:00:19;10.18;;;8.95;;
4565;SDS011;2295;51.050;14.608;2023-06-19T01:02:47;10.82;;;9.73;;
4565;SDS011;2295;51.050;14.608;2023-06-19T01:05:16;15.48;;;10.13;;
4565;SDS011;2295;51.050;14.608;2023-06-19T01:07:47;13.68;;;10.60;;
4565;SDS011;2295;51.050;14.608;2023-06-19T01:10:26;17.30;;;10.38;;
4565;SDS011;2295;51.050;14.608;2023-06-19T01:13:00;19.02;;;9.20;;
4565;SDS011;2295;51.050;14.608;2023-06-19T01:15:30;11.32;;;8.70;;
4565;SDS011;2295;51.050;14.608;2023-06-19T01:17:59;12.13;;;9.45;;
4565;SDS011;2295;51.050;14.608;2023-06-19T01:20:29;14.00;;;9.73;;
4565;SDS011;2295;51.050;14.608;2023-06-19T01:23:06;13.20;;;10.70;;
4565;SDS011;2295;51.050;14.608;2023-06-19T01:25:35;15.90;;;10.30;;
4565;SDS011;2295;51.050;14.608;2023-06-19T01:28:04;12.23;;;9.73;;
4565;SDS011;2295;51.050;14.608;2023-06-19T01:30:36;12.90;;;9.40;;
4565;SDS011;2295;51.050;14.608;2023-06-19T01:33:06;12.13;;;10.07;;
4565;SDS011;2295;51.050;14.608;2023-06-19T01:35:43;19.00;;;9.80;;
4565;SDS011;2295;51.050;14.608;2023-06-19T01:38:15;13.63;;;10.23;;
4565;SDS011;2295;51.050;14.608;2023-06-19T01:40:45;14.88;;;10.30;;
4565;SDS011;2295;51.050;14.608;2023-06-19T01:43:16;17.65;;;10.40;;
4565;SDS011;2295;51.050;14.608;2023-06-19T01:45:45;11.30;;;9.43;;
4565;SDS011;2295;51.050;14.608;2023-06-19T01:48:14;13.65;;;9.60;;
4565;SDS011;2295;51.050;14.608;2023-06-19T01:50:44;16.00;;;9.60;;
4565;SDS011;2295;51.050;14.608;2023-06-19T01:53:13;13.65;;;9.60;;
4565;SDS011;2295;51.050;14.608;2023-06-19T01:55:43;11.30;;;9.38;;
4565;SDS011;2295;51.050;14.608;2023-06-19T01:58:12;14.60;;;10.15;;
4565;SDS011;2295;51.050;14.608;2023-06-19T02:00:40;13.00;;;9.25;;
4565;SDS011;2295;51.050;14.608;2023-06-19T02:03:08;11.82;;;9.35;;
4565;SDS011;2295;51.050;14.608;2023-06-19T02:05:37;13.68;;;9.80;;
4565;SDS011;2295;51.050;14.608;2023-06-19T02:08:06;12.13;;;9.45;;
4565;SDS011;2295;51.050;14.608;2023-06-19T02:10:36;12.45;;;9.57;;
4565;SDS011;2295;51.050;14.608;2023-06-19T02:13:04;16.05;;;9.50;;
4565;SDS011;2295;51.050;14.608;2023-06-19T02:15:32;14.55;;;9.20;;
4565;SDS011;2295;51.050;14.608;2023-06-19T02:18:00;14.32;;;10.13;;
4565;SDS011;2295;51.050;14.608;2023-06-19T02:20:30;13.48;;;10.27;;
4565;SDS011;2295;51.050;14.608;2023-06-19T02:22:58;12.45;;;9.20;;
4565;SDS011;2295;51.050;14.608;2023-06-19T02:25:27;21.13;;;9.88;;
4565;SDS011;2295;51.050;14.608;2023-06-19T02:27:57;15.00;;;10.60;;
4565;SDS011;2295;51.050;14.608;2023-06-19T02:30:25;12.90;;;9.80;;
4565;SDS011;2295;51.050;14.608;2023-06-19T02:32:54;13.15;;;9.75;;
4565;SDS011;2295;51.050;14.608;2023-06-19T02:35:22;16.98;;;10.50;;
4565;SDS011;2295;51.050;14.608;2023-06-19T02:37:50;14.80;;;10.25;;
4565;SDS011;2295;51.050;14.608;2023-06-19T02:40:19;15.60;;;10.10;;
4565;SDS011;2295;51.050;14.608;2023-06-19T02:42:47;14.02;;;10.18;;
4565;SDS011;2295;51.050;14.608;2023-06-19T02:45:17;16.23;;;9.73;;
4565;SDS011;2295;51.050;14.608;2023-06-19T02:47:45;13.98;;;10.05;;
4565;SDS011;2295;51.050;14.608;2023-06-19T02:50:14;13.70;;;10.15;;
4565;SDS011;2295;51.050;14.608;2023-06-19T02:52:42;13.05;;;10.35;;
4565;SDS011;2295;51.050;14.608;2023-06-19T02:55:10;13.43;;;9.30;;
4565;SDS011;2295;51.050;14.608;2023-06-19T02:57:39;10.93;;;9.25;;
4565;SDS011;2295;51.050;14.608;2023-06-19T03:00:07;16.98;;;10.30;;
4565;SDS011;2295;51.050;14.608;2023-06-19T03:02:39;10.30;;;9.20;;
4565;SDS011;2295;51.050;14.608;2023-06-19T03:05:10;16.45;;;10.65;;
4565;SDS011;2295;51.050;14.608;2023-06-19T03:07:41;16.00;;;10.15;;
4565;SDS011;2295;51.050;14.608;2023-06-19T03:10:09;13.38;;;10.07;;
4565;SDS011;2295;51.050;14.608;2023-06-19T03:12:38;11.55;;;8.90;;
4565;SDS011;2295;51.050;14.608;2023-06-19T03:15:06;16.27;;;11.20;;
4565;SDS011;2295;51.050;14.608;2023-06-19T03:17:35;16.58;;;9.55;;
4565;SDS011;2295;51.050;14.608;2023-06-19T03:20:05;13.38;;;9.68;;
4565;SDS011;2295;51.050;14.608;2023-06-19T03:22:38;14.52;;;10.25;;
4565;SDS011;2295;51.050;14.608;2023-06-19T03:25:08;13.80;;;9.30;;
4565;SDS011;2295;51.050;14.608;2023-06-19T03:27:36;14.30;;;8.95;;
4565;SDS011;2295;51.050;14.608;2023-06-19T03:30:05;12.38;;;9.27;;
4565;SDS011;2295;51.050;14.608;2023-06-19T03:32:34;16.17;;;10.68;;
4565;SDS011;2295;51.050;14.608;2023-06-19T03:35:03;17.30;;;10.63;;
4565;SDS011;2295;51.050;14.608;2023-06-19T03:37:33;16.42;;;10.25;;
4565;SDS011;2295;51.050;14.608;2023-06-19T03:40:01;16.10;;;10.15;;
4565;SDS011;2295;51.050;14.608;2023-06-19T03:42:32;15.48;;;10.38;;
4565;SDS011;2295;51.050;14.608;2023-06-19T03:45:01;12.38;;;9.63;;
4565;SDS011;2295;51.050;14.608;2023-06-19T03:47:29;16.70;;;9.50;;
4565;SDS011;2295;51.050;14.608;2023-06-19T03:49:58;13.68;;;10.02;;
4565;SDS011;2295;51.050;14.608;2023-06-19T03:52:47;13.27;;;9.50;;
4565;SDS011;2295;51.050;14.608;2023-06-19T03:55:15;13.73;;;9.88;;
4565;SDS011;2295;51.050;14.608;2023-06-19T03:57:44;12.57;;;9.65;;
4565;SDS011;2295;51.050;14.608;2023-06-19T04:00:13;15.05;;;9.70;;
4565;SDS011;2295;51.050;14.608;2023-06-19T04:02:42;11.52;;;9.45;;
4565;SDS011;2295;51.050;14.608;2023-06-19T04:05:13;11.68;;;9.30;;
4565;SDS011;2295;51.050;14.608;2023-06-19T04:07:41;15.07;;;9.75;;
4565;SDS011;2295;51.050;14.608;2023-06-19T04:10:11;12.82;;;9.20;;
4565;SDS011;2295;51.050;14.608;2023-06-19T04:12:39;10.95;;;8.88;;
4565;SDS011;2295;51.050;14.608;2023-06-19T04:15:08;10.15;;;8.82;;
4565;SDS011;2295;51.050;14.608;2023-06-19T04:17:37;15.93;;;9.35;;
4565;SDS011;2295;51.050;14.608;2023-06-19T04:20:06;20.20;;;9.50;;
4565;SDS011;2295;51.050;14.608;2023-06-19T04:22:37;15.33;;;9.57;;
4565;SDS011;2295;51.050;14.608;2023-06-19T04:25:07;13.67;;;9.20;;
4565;SDS011;2295;51.050;14.608;2023-06-19T04:27:38;12.83;;;8.67;;
4565;SDS011;2295;51.050;14.608;2023-06-19T04:30:07;11.53;;;9.50;;
4565;SDS011;2295;51.050;14.608;2023-06-19T04:32:35;14.63;;;9.10;;
4565;SDS011;2295;51.050;14.608;2023-06-19T04:35:08;14.63;;;9.80;;
4565;SDS011;2295;51.050;14.608;2023-06-19T04:37:36;16.27;;;9.17;;
4565;SDS011;2295;51.050;14.608;2023-06-19T04:40:05;10.60;;;9.50;;
4565;SDS011;2295;51.050;14.608;2023-06-19T04:42:42;9.83;;;8.40;;
4565;SDS011;2295;51.050;14.608;2023-06-19T04:45:11;14.20;;;9.80;;
4565;SDS011;2295;51.050;14.608;2023-06-19T04:47:39;12.20;;;8.70;;
4565;SDS011;2295;51.050;14.608;2023-06-19T04:50:19;10.87;;;8.90;;
4565;SDS011;2295;51.050;14.608;2023-06-19T04:52:48;12.23;;;9.50;;
4565;SDS011;2295;51.050;14.608;2023-06-19T04:55:18;10.20;;;9.07;;
4565;SDS011;2295;51.050;14.608;2023-06-19T04:57:48;10.20;;;9.00;;
4565;SDS011;2295;51.050;14.608;2023-06-19T05:00:16;11.13;;;9.17;;
4565;SDS011;2295;51.050;14.608;2023-06-19T05:02:46;12.33;;;8.67;;
4565;SDS011;2295;51.050;14.608;2023-06-19T05:05:15;9.63;;;8.63;;
4565;SDS011;2295;51.050;14.608;2023-06-19T05:07:46;9.50;;;8.00;;
4565;SDS011;2295;51.050;14.608;2023-06-19T05:10:15;10.40;;;8.80;;
4565;SDS011;2295;51.050;14.608;2023-06-19T05:12:43;12.70;;;8.80;;
4565;SDS011;2295;51.050;14.608;2023-06-19T05:15:13;13.00;;;8.63;;
4565;SDS011;2295;51.050;14.608;2023-06-19T05:17:41;9.93;;;8.30;;
4565;SDS011;2295;51.050;14.608;2023-06-19T05:20:13;10.60;;;7.67;;
4565;SDS011;2295;51.050;14.608;2023-06-19T05:22:41;9.77;;;8.00;;
4565;SDS011;2295;51.050;14.608;2023-06-19T05:25:10;9.37;;;8.03;;
4565;SDS011;2295;51.050;14.608;2023-06-19T05:27:38;7.40;;;6.70;;
4565;SDS011;2295;51.050;14.608;2023-06-19T05:30:07;11.07;;;7.40;;
4565;SDS011;2295;51.050;14.608;2023-06-19T05:32:38;6.97;;;6.27;;
4565;SDS011;2295;51.050;14.608;2023-06-19T05:35:06;8.37;;;6.77;;
4565;SDS011;2295;51.050;14.608;2023-06-19T05:37:41;9.27;;;7.30;;
4565;SDS011;2295;51.050;14.608;2023-06-19T05:40:10;9.07;;;6.70;;
4565;SDS011;2295;51.050;14.608;2023-06-19T05:42:39;7.80;;;6.37;;
4565;SDS011;2295;51.050;14.608;2023-06-19T05:45:10;18.57;;;6.77;;
4565;SDS011;2295;51.050;14.608;2023-06-19T05:47:40;10.67;;;6.83;;
4565;SDS011;2295;51.050;14.608;2023-06-19T05:50:09;10.10;;;7.50;;
4565;SDS011;2295;51.050;14.608;2023-06-19T05:52:37;13.70;;;6.93;;
4565;SDS011;2295;51.050;14.608;2023-06-19T05:55:09;9.33;;;6.77;;
4565;SDS011;2295;51.050;14.608;2023-06-19T05:57:38;6.97;;;6.27;;
4565;SDS011;2295;51.050;14.608;2023-06-19T06:00:07;12.37;;;6.90;;
4565;SDS011;2295;51.050;14.608;2023-06-19T06:02:41;14.50;;;7.80;;
4565;SDS011;2295;51.050;14.608;2023-06-19T06:05:10;10.13;;;6.87;;
4565;SDS011;2295;51.050;14.608;2023-06-19T06:07:38;7.47;;;6.40;;
4565;SDS011;2295;51.050;14.608;2023-06-19T06:10:07;8.70;;;6.10;;
4565;SDS011;2295;51.050;14.608;2023-06-19T06:12:37;10.70;;;6.63;;
4565;SDS011;2295;51.050;14.608;2023-06-19T06:15:05;14.93;;;6.90;;
4565;SDS011;2295;51.050;14.608;2023-06-19T06:17:34;9.50;;;7.00;;
4565;SDS011;2295;51.050;14.608;2023-06-19T06:20:04;10.80;;;6.83;;
4565;SDS011;2295;51.050;14.608;2023-06-19T06:22:37;10.63;;;6.07;;
4565;SDS011;2295;51.050;14.608;2023-06-19T06:25:06;9.17;;;6.30;;
4565;SDS011;2295;51.050;14.608;2023-06-19T06:27:39;9.73;;;6.37;;
4565;SDS011;2295;51.050;14.608;2023-06-19T06:30:08;7.70;;;6.50;;
4565;SDS011;2295;51.050;14.608;2023-06-19T06:32:38;10.57;;;7.10;;
4565;SDS011;2295;51.050;14.608;2023-06-19T06:35:08;7.97;;;7.17;;
4565;SDS011;2295;51.050;14.608;2023-06-19T06:37:36;10.47;;;5.90;;
4565;SDS011;2295;51.050;14.608;2023-06-19T06:40:05;7.10;;;6.40;;
4565;SDS011;2295;51.050;14.608;2023-06-19T06:42:37;9.50;;;6.20;;
4565;SDS011;2295;51.050;14.608;2023-06-19T06:45:06;5.93;;;5.33;;
4565;SDS011;2295;51.050;14.608;2023-06-19T06:47:35;6.77;;;6.13;;
4565;SDS011;2295;51.050;14.608;2023-06-19T06:50:03;6.37;;;5.77;;
4565;SDS011;2295;51.050;14.608;2023-06-19T06:52:34;7.47;;;6.73;;
4565;SDS011;2295;51.050;14.608;2023-06-19T06:55:02;8.50;;;5.70;;
4565;SDS011;2295;51.050;14.608;2023-06-19T06:57:31;6.87;;;5.67;;
4565;SDS011;2295;51.050;14.608;2023-06-19T06:59:59;9.50;;;6.57;;
4565;SDS011;2295;51.050;14.608;2023-06-19T07:02:27;6.50;;;6.00;;
4565;SDS011;2295;51.050;14.608;2023-06-19T07:04:56;6.77;;;6.17;;
4565;SDS011;2295;51.050;14.608;2023-06-19T07:07:24;7.50;;;6.73;;
4565;SDS011;2295;51.050;14.608;2023-06-19T07:09:54;7.43;;;6.47;;
4565;SDS011;2295;51.050;14.608;2023-06-19T07:12:22;18.00;;;6.33;;
4565;SDS011;2295;51.050;14.608;2023-06-19T07:14:53;10.00;;;6.63;;
4565;SDS011;2295;51.050;14.608;2023-06-19T07:17:21;11.10;;;6.40;;
4565;SDS011;2295;51.050;14.608;2023-06-19T07:19:50;9.40;;;6.13;;
4565;SDS011;2295;51.050;14.608;2023-06-19T07:22:18;6.60;;;6.03;;
4565;SDS011;2295;51.050;14.608;2023-06-19T07:24:46;10.43;;;6.57;;
4565;SDS011;2295;51.050;14.608;2023-06-19T07:27:16;9.40;;;6.80;;
4565;SDS011;2295;51.050;14.608;2023-06-19T07:29:44;8.53;;;7.27;;
4565;SDS011;2295;51.050;14.608;2023-06-19T07:32:13;7.33;;;6.07;;
4565;SDS011;2295;51.050;14.608;2023-06-19T07:34:41;9.30;;;6.70;;
4565;SDS011;2295;51.050;14.608;2023-06-19T07:37:09;9.03;;;6.47;;
4565;SDS011;2295;51.050;14.608;2023-06-19T07:39:43;6.97;;;5.70;;
4565;SDS011;2295;51.050;14.608;2023-06-19T07:42:12;6.87;;;6.20;;
4565;SDS011;2295;51.050;14.608;2023-06-19T07:44:42;6.50;;;5.90;;
4565;SDS011;2295;51.050;14.608;2023-06-19T07:47:10;11.13;;;6.20;;
4565;SDS011;2295;51.050;14.608;2023-06-19T07:49:40;7.80;;;6.37;;
4565;SDS011;2295;51.050;14.608;2023-06-19T07:52:08;6.93;;;6.23;;
4565;SDS011;2295;51.050;14.608;2023-06-19T07:54:47;7.50;;;5.70;;
4565;SDS011;2295;51.050;14.608;2023-06-19T07:57:17;8.47;;;6.60;;
4565;SDS011;2295;51.050;14.608;2023-06-19T07:59:49;11.97;;;6.87;;
4565;SDS011;2295;51.050;14.608;2023-06-19T08:02:18;6.93;;;6.23;;
4565;SDS011;2295;51.050;14.608;2023-06-19T08:04:46;7.60;;;6.00;;
4565;SDS011;2295;51.050;14.608;2023-06-19T08:07:15;9.00;;;6.50;;
4565;SDS011;2295;51.050;14.608;2023-06-19T08:09:43;12.83;;;5.73;;
4565;SDS011;2295;51.050;14.608;2023-06-19T08:12:22;6.90;;;6.10;;
4565;SDS011;2295;51.050;14.608;2023-06-19T08:14:52;11.67;;;6.60;;
4565;SDS011;2295;51.050;14.608;2023-06-19T08:17:20;11.90;;;6.50;;
4565;SDS011;2295;51.050;14.608;2023-06-19T08:19:49;11.60;;;6.50;;
4565;SDS011;2295;51.050;14.608;2023-06-19T08:22:17;6.47;;;5.50;;
4565;SDS011;2295;51.050;14.608;2023-06-19T08:24:46;7.53;;;5.63;;
4565;SDS011;2295;51.050;14.608;2023-06-19T08:27:14;9.23;;;6.50;;
4565;SDS011;2295;51.050;14.608;2023-06-19T08:29:42;5.97;;;5.47;;
4565;SDS011;2295;51.050;14.608;2023-06-19T08:32:12;6.70;;;6.10;;
4565;SDS011;2295;51.050;14.608;2023-06-19T08:34:40;9.33;;;6.30;;
4565;SDS011;2295;51.050;14.608;2023-06-19T08:37:09;6.40;;;5.90;;
4565;SDS011;2295;51.050;14.608;2023-06-19T08:39:40;6.60;;;5.80;;
4565;SDS011;2295;51.050;14.608;2023-06-19T08:42:08;9.37;;;6.50;;
4565;SDS011;2295;51.050;14.608;2023-06-19T08:44:37;9.77;;;5.63;;
4565;SDS011;2295;51.050;14.608;2023-06-19T08:47:05;6.77;;;5.53;;
4565;SDS011;2295;51.050;14.608;2023-06-19T08:49:36;6.07;;;5.60;;
4565;SDS011;2295;51.050;14.608;2023-06-19T08:52:04;6.80;;;6.20;;
4565;SDS011;2295;51.050;14.608;2023-06-19T08:54:34;6.10;;;5.60;;
4565;SDS011;2295;51.050;14.608;2023-06-19T08:57:10;10.33;;;6.10;;
4565;SDS011;2295;51.050;14.608;2023-06-19T08:59:39;8.20;;;6.13;;
4565;SDS011;2295;51.050;14.608;2023-06-19T09:02:15;6.53;;;5.90;;
4565;SDS011;2295;51.050;14.608;2023-06-19T09:04:45;11.23;;;6.30;;
4565;SDS011;2295;51.050;14.608;2023-06-19T09:07:13;6.33;;;5.70;;
4565;SDS011;2295;51.050;14.608;2023-06-19T09:09:44;7.33;;;5.83;;
4565;SDS011;2295;51.050;14.608;2023-06-19T09:12:13;7.23;;;5.47;;
4565;SDS011;2295;51.050;14.608;2023-06-19T09:14:42;5.87;;;5.27;;
4565;SDS011;2295;51.050;14.608;2023-06-19T09:17:12;5.93;;;5.40;;
4565;SDS011;2295;51.050;14.608;2023-06-19T09:19:48;18.63;;;5.83;;
4565;SDS011;2295;51.050;14.608;2023-06-19T09:22:17;6.47;;;5.87;;
4565;SDS011;2295;51.050;14.608;2023-06-19T09:24:48;6.00;;;5.50;;
4565;SDS011;2295;51.050;14.608;2023-06-19T09:27:17;13.43;;;5.87;;
4565;SDS011;2295;51.050;14.608;2023-06-19T09:29:47;6.10;;;5.50;;
4565;SDS011;2295;51.050;14.608;2023-06-19T09:32:18;6.50;;;5.90;;
4565;SDS011;2295;51.050;14.608;2023-06-19T09:34:49;7.10;;;6.20;;
4565;SDS011;2295;51.050;14.608;2023-06-19T09:37:21;6.50;;;5.90;;
4565;SDS011;2295;51.050;14.608;2023-06-19T09:39:52;11.98;;;6.40;;
4565;SDS011;2295;51.050;14.608;2023-06-19T09:42:24;5.70;;;5.20;;
4565;SDS011;2295;51.050;14.608;2023-06-19T09:44:55;5.53;;;5.03;;
4565;SDS011;2295;51.050;14.608;2023-06-19T09:47:29;12.07;;;5.63;;
4565;SDS011;2295;51.050;14.608;2023-06-19T09:50:00;11.37;;;5.80;;
4565;SDS011;2295;51.050;14.608;2023-06-19T09:52:29;7.53;;;5.90;;
4565;SDS011;2295;51.050;14.608;2023-06-19T09:54:58;7.47;;;5.70;;
4565;SDS011;2295;51.050;14.608;2023-06-19T09:57:30;6.37;;;5.73;;
4565;SDS011;2295;51.050;14.608;2023-06-19T09:59:59;7.00;;;5.50;;
4565;SDS011;2295;51.050;14.608;2023-06-19T10:02:38;6.30;;;5.80;;
4565;SDS011;2295;51.050;14.608;2023-06-19T10:05:09;5.80;;;5.30;;
4565;SDS011;2295;51.050;14.608;2023-06-19T10:07:41;8.30;;;5.90;;
4565;SDS011;2295;51.050;14.608;2023-06-19T10:10:11;6.10;;;5.50;;
4565;SDS011;2295;51.050;14.608;2023-06-19T10:12:50;5.53;;;5.07;;
4565;SDS011;2295;51.050;14.608;2023-06-19T10:15:21;12.30;;;5.30;;
4565;SDS011;2295;51.050;14.608;2023-06-19T10:17:52;5.80;;;5.30;;
4565;SDS011;2295;51.050;14.608;2023-06-19T10:20:28;7.30;;;6.03;;
4565;SDS011;2295;51.050;14.608;2023-06-19T10:23:00;6.53;;;5.93;;
4565;SDS011;2295;51.050;14.608;2023-06-19T10:25:31;6.87;;;6.27;;
4565;SDS011;2295;51.050;14.608;2023-06-19T10:28:01;9.27;;;6.30;;
4565;SDS011;2295;51.050;14.608;2023-06-19T10:30:32;16.27;;;6.60;;
4565;SDS011;2295;51.050;14.608;2023-06-19T10:33:01;5.47;;;4.93;;
4565;SDS011;2295;51.050;14.608;2023-06-19T10:35:38;13.23;;;6.70;;
4565;SDS011;2295;51.050;14.608;2023-06-19T10:38:07;6.80;;;6.20;;
4565;SDS011;2295;51.050;14.608;2023-06-19T10:40:37;9.40;;;6.83;;
4565;SDS011;2295;51.050;14.608;2023-06-19T10:43:05;7.30;;;6.43;;
4565;SDS011;2295;51.050;14.608;2023-06-19T10:45:33;6.80;;;6.17;;
4565;SDS011;2295;51.050;14.608;2023-06-19T10:48:02;6.90;;;6.30;;
4565;SDS011;2295;51.050;14.608;2023-06-19T10:50:35;8.87;;;6.63;;
4565;SDS011;2295;51.050;14.608;2023-06-19T10:53:09;7.33;;;6.60;;
4565;SDS011;2295;51.050;14.608;2023-06-19T10:55:38;7.33;;;6.63;;
4565;SDS011;2295;51.050;14.608;2023-06-19T10:58:06;7.70;;;7.10;;
4565;SDS011;2295;51.050;14.608;2023-06-19T11:00:34;7.80;;;7.00;;
4565;SDS011;2295;51.050;14.608;2023-06-19T11:03:03;7.37;;;6.67;;
4565;SDS011;2295;51.050;14.608;2023-06-19T11:05:32;7.27;;;6.20;;
4565;SDS011;2295;51.050;14.608;2023-06-19T11:08:01;8.87;;;7.10;;
4565;SDS011;2295;51.050;14.608;2023-06-19T11:10:30;8.90;;;7.03;;
4565;SDS011;2295;51.050;14.608;2023-06-19T11:12:58;13.90;;;7.00;;
4565;SDS011;2295;51.050;14.608;2023-06-19T11:15:28;7.13;;;5.70;;
4565;SDS011;2295;51.050;14.608;2023-06-19T11:17:57;7.43;;;6.37;;
4565;SDS011;2295;51.050;14.608;2023-06-19T11:20:28;7.10;;;6.40;;
4565;SDS011;2295;51.050;14.608;2023-06-19T11:22:57;8.13;;;6.67;;
4565;SDS011;2295;51.050;14.608;2023-06-19T11:25:36;9.63;;;6.80;;
4565;SDS011;2295;51.050;14.608;2023-06-19T11:28:10;9.50;;;6.67;;
4565;SDS011;2295;51.050;14.608;2023-06-19T11:30:40;7.90;;;6.57;;
4565;SDS011;2295;51.050;14.608;2023-06-19T11:33:16;11.00;;;6.77;;
4565;SDS011;2295;51.050;14.608;2023-06-19T11:35:49;16.47;;;7.90;;
4565;SDS011;2295;51.050;14.608;2023-06-19T11:38:18;8.20;;;7.33;;
4565;SDS011;2295;51.050;14.608;2023-06-19T11:40:49;10.27;;;7.57;;
4565;SDS011;2295;51.050;14.608;2023-06-19T11:43:24;13.83;;;7.67;;
4565;SDS011;2295;51.050;14.608;2023-06-19T11:45:53;11.17;;;7.97;;
4565;SDS011;2295;51.050;14.608;2023-06-19T11:48:22;11.47;;;7.50;;
4565;SDS011;2295;51.050;14.608;2023-06-19T11:50:51;8.30;;;7.47;;
4565;SDS011;2295;51.050;14.608;2023-06-19T11:53:20;9.60;;;6.87;;
4565;SDS011;2295;51.050;14.608;2023-06-19T11:55:51;10.63;;;7.03;;
4565;SDS011;2295;51.050;14.608;2023-06-19T11:58:23;8.10;;;7.40;;
4565;SDS011;2295;51.050;14.608;2023-06-19T12:00:52;14.33;;;7.63;;
4565;SDS011;2295;51.050;14.608;2023-06-19T12:03:22;9.17;;;6.53;;
4565;SDS011;2295;51.050;14.608;2023-06-19T12:05:51;9.10;;;7.67;;
4565;SDS011;2295;51.050;14.608;2023-06-19T12:08:20;8.57;;;6.30;;
4565;SDS011;2295;51.050;14.608;2023-06-19T12:10:48;8.63;;;6.40;;
4565;SDS011;2295;51.050;14.608;2023-06-19T12:13:19;7.07;;;6.50;;
4565;SDS011;2295;51.050;14.608;2023-06-19T12:15:47;7.03;;;6.33;;
4565;SDS011;2295;51.050;14.608;2023-06-19T12:18:17;9.60;;;6.57;;
4565;SDS011;2295;51.050;14.608;2023-06-19T12:20:45;6.87;;;6.27;;
4565;SDS011;2295;51.050;14.608;2023-06-19T12:23:13;9.03;;;5.67;;
4565;SDS011;2295;51.050;14.608;2023-06-19T12:25:42;5.93;;;5.43;;
4565;SDS011;2295;51.050;14.608;2023-06-19T12:28:10;6.30;;;5.80;;
4565;SDS011;2295;51.050;14.608;2023-06-19T12:30:46;12.87;;;6.20;;
4565;SDS011;2295;51.050;14.608;2023-06-19T12:33:17;10.33;;;5.90;;
4565;SDS011;2295;51.050;14.608;2023-06-19T12:35:47;6.53;;;5.90;;
4565;SDS011;2295;51.050;14.608;2023-06-19T12:38:15;8.03;;;6.00;;
4565;SDS011;2295;51.050;14.608;2023-06-19T12:40:44;6.67;;;5.70;;
4565;SDS011;2295;51.050;14.608;2023-06-19T12:43:12;7.67;;;6.17;;
4565;SDS011;2295;51.050;14.608;2023-06-19T12:45:40;5.57;;;5.13;;
4565;SDS011;2295;51.050;14.608;2023-06-19T12:48:11;7.13;;;5.57;;
4565;SDS011;2295;51.050;14.608;2023-06-19T12:50:39;6.07;;;5.47;;
4565;SDS011;2295;51.050;14.608;2023-06-19T12:53:07;9.13;;;5.77;;
4565;SDS011;2295;51.050;14.608;2023-06-19T12:55:37;5.40;;;5.00;;
4565;SDS011;2295;51.050;14.608;2023-06-19T12:58:25;6.60;;;5.63;;
4565;SDS011;2295;51.050;14.608;2023-06-19T13:00:54;6.20;;;5.80;;
4565;SDS011;2295;51.050;14.608;2023-06-19T13:03:24;19.00;;;7.43;;
4565;SDS011;2295;51.050;14.608;2023-06-19T13:05:52;6.70;;;6.10;;
4565;SDS011;2295;51.050;14.608;2023-06-19T13:08:20;6.20;;;5.60;;
4565;SDS011;2295;51.050;14.608;2023-06-19T13:10:48;8.20;;;6.47;;
4565;SDS011;2295;51.050;14.608;2023-06-19T13:13:17;21.33;;;9.20;;
4565;SDS011;2295;51.050;14.608;2023-06-19T13:15:45;17.93;;;8.80;;
4565;SDS011;2295;51.050;14.608;2023-06-19T13:18:13;15.00;;;6.03;;
4565;SDS011;2295;51.050;14.608;2023-06-19T13:20:43;6.77;;;6.27;;
4565;SDS011;2295;51.050;14.608;2023-06-19T13:23:14;7.77;;;7.00;;
4565;SDS011;2295;51.050;14.608;2023-06-19T13:25:42;6.90;;;6.33;;
4565;SDS011;2295;51.050;14.608;2023-06-19T13:28:11;7.60;;;6.33;;
4565;SDS011;2295;51.050;14.608;2023-06-19T13:30:39;8.43;;;6.00;;
4565;SDS011;2295;51.050;14.608;2023-06-19T13:33:07;7.00;;;6.30;;
4565;SDS011;2295;51.050;14.608;2023-06-19T13:35:39;7.03;;;6.50;;
4565;SDS011;2295;51.050;14.608;2023-06-19T13:38:11;7.00;;;6.37;;
4565;SDS011;2295;51.050;14.608;2023-06-19T13:40:40;7.30;;;6.70;;
4565;SDS011;2295;51.050;14.608;2023-06-19T13:43:08;7.10;;;6.40;;
4565;SDS011;2295;51.050;14.608;2023-06-19T13:45:37;6.80;;;6.20;;
4565;SDS011;2295;51.050;14.608;2023-06-19T13:48:06;7.73;;;5.90;;
4565;SDS011;2295;51.050;14.608;2023-06-19T13:50:34;7.07;;;6.40;;
4565;SDS011;2295;51.050;14.608;2023-06-19T13:53:02;6.70;;;6.03;;
4565;SDS011;2295;51.050;14.608;2023-06-19T13:55:32;46.20;;;17.93;;
4565;SDS011;2295;51.050;14.608;2023-06-19T13:58:03;7.73;;;6.27;;
4565;SDS011;2295;51.050;14.608;2023-06-19T14:00:32;7.00;;;6.40;;
4565;SDS011;2295;51.050;14.608;2023-06-19T14:03:03;9.50;;;6.57;;
4565;SDS011;2295;51.050;14.608;2023-06-19T14:05:33;7.33;;;6.57;;
4565;SDS011;2295;51.050;14.608;2023-06-19T14:08:05;7.37;;;6.67;;
4565;SDS011;2295;51.050;14.608;2023-06-19T14:10:34;8.40;;;6.87;;
4565;SDS011;2295;51.050;14.608;2023-06-19T14:13:03;6.77;;;6.17;;
4565;SDS011;2295;51.050;14.608;2023-06-19T14:15:31;7.07;;;6.37;;
4565;SDS011;2295;51.050;14.608;2023-06-19T14:17:59;6.70;;;6.17;;
4565;SDS011;2295;51.050;14.608;2023-06-19T14:20:28;6.43;;;5.57;;
4565;SDS011;2295;51.050;14.608;2023-06-19T14:22:56;45.47;;;9.73;;
4565;SDS011;2295;51.050;14.608;2023-06-19T14:25:24;10.67;;;6.13;;
4565;SDS011;2295;51.050;14.608;2023-06-19T14:27:57;6.67;;;6.07;;
4565;SDS011;2295;51.050;14.608;2023-06-19T14:30:25;7.20;;;6.23;;
4565;SDS011;2295;51.050;14.608;2023-06-19T14:32:54;9.47;;;6.30;;
4565;SDS011;2295;51.050;14.608;2023-06-19T14:35:22;7.17;;;6.30;;
4565;SDS011;2295;51.050;14.608;2023-06-19T14:37:50;7.70;;;6.77;;
4565;SDS011;2295;51.050;14.608;2023-06-19T14:40:19;9.67;;;7.30;;
4565;SDS011;2295;51.050;14.608;2023-06-19T14:42:48;12.00;;;7.20;;
4565;SDS011;2295;51.050;14.608;2023-06-19T14:45:18;15.80;;;9.70;;
4565;SDS011;2295;51.050;14.608;2023-06-19T14:47:46;20.33;;;10.87;;
4565;SDS011;2295;51.050;14.608;2023-06-19T14:50:15;15.47;;;8.60;;
4565;SDS011;2295;51.050;14.608;2023-06-19T14:52:43;8.13;;;7.47;;
4565;SDS011;2295;51.050;14.608;2023-06-19T14:55:11;7.50;;;6.80;;
4565;SDS011;2295;51.050;14.608;2023-06-19T14:57:40;7.83;;;7.00;;
4565;SDS011;2295;51.050;14.608;2023-06-19T15:00:08;10.73;;;6.50;;
4565;SDS011;2295;51.050;14.608;2023-06-19T15:02:39;8.03;;;7.10;;
4565;SDS011;2295;51.050;14.608;2023-06-19T15:05:08;12.30;;;7.30;;
4565;SDS011;2295;51.050;14.608;2023-06-19T15:07:37;14.03;;;7.27;;